Bone Gap, Illinois
Current Conditions -  °F | °C
As of 1:55 PM on Thursday 30 Oct 2014 (Local Time) from KAJG Reporting Station
Haze Haze  
Wind Chill: 59°   Ceiling: Unl
Heat Index: 59°   Visibility: 3mi
Dew Point: 36°   Wind: 0mph
Humidity: 42%   Direction: NA
Pressure: 30.09"   Gusts: NA
Location:  38.45°N, 88°W
Report Text: KAJG 301855Z AUTO 00000KT 3SM HZ CLR 15/02 A3009 RMK AO2
Loading
Personal Weather Stations






























Interactive Weather Map
Tropical Storm Tracking
New forecast layout! Learn more

10-Day Weather Forecast

Advertisements
Track Severe Weather on mobile